createdAt,value
2023-05-05T00:00:13.758Z,69.8159
2023-05-05T00:01:14.809Z,70.1560
2023-05-05T00:02:15.424Z,70.0864
2023-05-05T00:03:16.730Z,70.4387
2023-05-05T00:04:18.039Z,70.4089
2023-05-05T00:05:18.293Z,70.3135
2023-05-05T00:06:18.840Z,70.0580
2023-05-05T00:07:19.366Z,69.9150
2023-05-05T00:08:19.678Z,70.2448
2023-05-05T00:09:20.233Z,70.1242
2023-05-05T00:10:21.108Z,69.8382
2023-05-05T00:11:22.177Z,69.8673
2023-05-05T00:12:22.752Z,71.0406
2023-05-05T00:13:23.906Z,71.8648
2023-05-05T00:14:24.702Z,71.6864
2023-05-05T00:15:25.265Z,71.7434
2023-05-05T00:16:26.065Z,72.1254
2023-05-05T00:17:26.985Z,71.9488
2023-05-05T00:18:28.135Z,72.2370
2023-05-05T00:19:28.868Z,72.2186
2023-05-05T00:20:30.070Z,72.4028
2023-05-05T00:21:30.842Z,73.2847
2023-05-05T00:22:31.664Z,73.2155
2023-05-05T00:23:32.228Z,73.1071
2023-05-05T00:24:32.881Z,73.4230
2023-05-05T00:25:33.534Z,74.2736
2023-05-05T00:26:34.265Z,74.3989
2023-05-05T00:27:35.079Z,74.1981
2023-05-05T00:28:35.635Z,75.1549
2023-05-05T00:29:36.427Z,75.2859
2023-05-05T00:30:37.330Z,74.7283
2023-05-05T00:31:38.190Z,74.1845
2023-05-05T00:32:39.155Z,73.9169
2023-05-05T00:33:39.786Z,74.3818
2023-05-05T00:34:40.648Z,73.8606
2023-05-05T00:35:41.558Z,73.7984
2023-05-05T00:36:43.289Z,73.8875
2023-05-05T00:37:43.320Z,73.9585
2023-05-05T00:38:44.078Z,73.6729
2023-05-05T00:39:45.009Z,73.5259
2023-05-05T00:40:45.929Z,73.0359
2023-05-05T00:41:46.637Z,72.6938
2023-05-05T00:42:47.538Z,72.9452
2023-05-05T00:43:48.382Z,72.6881
2023-05-05T00:44:48.970Z,73.0178
2023-05-05T00:45:49.610Z,73.0434
2023-05-05T00:46:50.643Z,73.0572
2023-05-05T00:47:51.825Z,73.0418
2023-05-05T00:48:53.918Z,73.1627
2023-05-05T00:49:53.577Z,73.7212
2023-05-05T00:50:54.483Z,73.7075
2023-05-05T00:51:55.331Z,73.9856
2023-05-05T00:52:56.016Z,74.7027
2023-05-05T00:53:56.963Z,74.4609
2023-05-05T00:54:57.617Z,74.6430
2023-05-05T00:55:58.344Z,74.9374
2023-05-05T00:56:59.269Z,75.0960
2023-05-05T00:57:59.882Z,75.2525
2023-05-05T00:59:01.470Z,74.7926
2023-05-05T01:00:01.207Z,74.6473
2023-05-05T01:01:01.929Z,74.8607
2023-05-05T01:02:02.796Z,75.1482
2023-05-05T01:04:22.425Z,75.8526
2023-05-05T01:05:23.413Z,76.0862
2023-05-05T01:11:30.482Z,75.1211
2023-05-05T01:12:31.813Z,74.3121
2023-05-05T01:18:37.687Z,72.4513
2023-05-05T01:19:38.273Z,72.6888
2023-05-05T01:20:39.394Z,72.9564
2023-05-05T01:21:39.720Z,73.0682
2023-05-05T01:22:40.871Z,73.7080
2023-05-05T01:23:41.694Z,73.7200
2023-05-05T01:24:43.325Z,74.0857
2023-05-05T01:25:43.449Z,73.8486
2023-05-05T01:26:44.260Z,74.3975
2023-05-05T01:27:45.045Z,74.4777
2023-05-05T01:30:47.184Z,75.4039
2023-05-05T01:31:48.303Z,75.6744
2023-05-05T01:36:51.868Z,77.3352
2023-05-05T01:37:51.911Z,77.1900
2023-05-05T01:38:51.981Z,77.3497
2023-05-05T01:39:52.430Z,77.3597
2023-05-05T01:40:53.636Z,77.6074
2023-05-05T01:41:55.793Z,77.6283
2023-05-05T01:42:58.013Z,77.9241
2023-05-05T01:44:00.275Z,77.9403
2023-05-05T01:45:02.319Z,78.2241
2023-05-05T01:46:03.449Z,78.2267
2023-05-05T01:47:04.491Z,78.5944
2023-05-05T01:54:15.317Z,77.5630
2023-05-05T02:00:19.223Z,76.7746
2023-05-05T02:01:19.766Z,77.2547
2023-05-05T02:03:20.976Z,77.2659
2023-05-05T02:04:22.030Z,77.4442
2023-05-05T02:05:22.887Z,76.2714
2023-05-05T02:06:22.973Z,76.1789
2023-05-05T02:07:24.647Z,76.1957
2023-05-05T02:08:24.344Z,75.9613
2023-05-05T02:09:25.332Z,75.2883
2023-05-05T02:10:26.071Z,74.9022
2023-05-05T02:11:26.115Z,74.0068
2023-05-05T02:12:29.661Z,72.2486
2023-05-05T02:13:26.841Z,71.5994
2023-05-05T02:14:27.137Z,71.2487
2023-05-05T02:15:27.952Z,70.5984
2023-05-05T02:16:29.119Z,71.1696
2023-05-05T02:17:30.086Z,70.9815
2023-05-05T02:18:30.849Z,71.0540
2023-05-05T02:19:31.681Z,70.9861
2023-05-05T02:20:31.770Z,71.4078
2023-05-05T02:21:32.693Z,70.7396
2023-05-05T02:22:33.552Z,70.5053
2023-05-05T02:23:34.311Z,70.1763
2023-05-05T02:24:35.104Z,69.6404
2023-05-05T02:25:36.399Z,69.1668
2023-05-05T02:26:37.280Z,69.3813
2023-05-05T02:27:38.256Z,69.3387
2023-05-05T02:28:38.938Z,69.3399
2023-05-05T02:29:40.241Z,69.9651
2023-05-05T02:30:40.637Z,70.0958
2023-05-05T02:31:41.670Z,70.1650
2023-05-05T02:32:42.927Z,70.4120
2023-05-05T02:33:43.828Z,71.2736
2023-05-05T02:34:44.540Z,71.0432
2023-05-05T02:35:45.493Z,71.1750
2023-05-05T02:36:46.260Z,72.3329
2023-05-05T02:37:47.122Z,71.3730
2023-05-05T02:38:48.120Z,71.5474
2023-05-05T02:39:48.751Z,72.0764
2023-05-05T02:42:50.067Z,73.5328
2023-05-05T02:44:50.394Z,74.5219
2023-05-05T02:45:51.380Z,74.7943
2023-05-05T02:46:52.534Z,75.7076
2023-05-05T02:47:53.717Z,75.3419
2023-05-05T02:48:54.204Z,75.4751
2023-05-05T02:49:55.409Z,76.2057
2023-05-05T02:50:55.371Z,76.6302
2023-05-05T02:51:56.000Z,76.6616
2023-05-05T02:52:56.690Z,76.9790
2023-05-05T02:53:57.554Z,76.9717
2023-05-05T02:54:57.921Z,77.2759
2023-05-05T02:55:58.365Z,77.4064
2023-05-05T02:56:59.541Z,77.5333
2023-05-05T02:58:00.426Z,77.1290
2023-05-05T02:59:01.268Z,77.4275
2023-05-05T03:00:01.321Z,77.3979
2023-05-05T03:01:01.985Z,77.5433
2023-05-05T03:02:02.217Z,77.8143
2023-05-05T03:03:03.594Z,77.5521
2023-05-05T03:04:03.775Z,77.9753
2023-05-05T03:05:04.643Z,77.6759
2023-05-05T03:06:05.548Z,77.8214
2023-05-05T03:07:06.455Z,78.3589
2023-05-05T03:08:07.354Z,78.1568
2023-05-05T03:09:08.227Z,78.7221
2023-05-05T03:10:09.444Z,78.4677
2023-05-05T03:11:09.268Z,77.8487
2023-05-05T03:12:10.065Z,77.7406
2023-05-05T03:13:11.368Z,77.5957
2023-05-05T03:14:12.154Z,78.1209
2023-05-05T03:15:13.087Z,78.6641
2023-05-05T03:16:14.132Z,78.1268
2023-05-05T03:17:15.057Z,78.7523
2023-05-05T03:18:16.398Z,79.0965
2023-05-05T03:19:17.092Z,78.7564
2023-05-05T03:20:17.404Z,78.6171
2023-05-05T03:21:18.445Z,78.7686
2023-05-05T03:22:19.158Z,78.4617
2023-05-05T03:23:20.355Z,77.6843
2023-05-05T03:24:20.224Z,77.3034
2023-05-05T03:25:20.991Z,77.3690
2023-05-05T03:26:21.659Z,76.2420
2023-05-05T03:27:22.544Z,75.5018
2023-05-05T03:28:23.732Z,75.1289
2023-05-05T03:29:23.950Z,75.2573
2023-05-05T03:30:24.001Z,75.3470
2023-05-05T03:31:24.489Z,75.5865
2023-05-05T03:34:17.766Z,75.5695
2023-05-05T03:35:18.643Z,75.4236
2023-05-05T03:36:19.471Z,75.3582
2023-05-05T03:37:20.350Z,75.2573
2023-05-05T03:38:21.217Z,75.0195
2023-05-05T03:39:21.904Z,75.2539
2023-05-05T03:40:29.618Z,75.3722
2023-05-05T03:41:23.516Z,75.0561
2023-05-05T03:42:24.155Z,75.6069
2023-05-05T03:43:24.974Z,75.3596
2023-05-05T03:44:25.709Z,75.5030
2023-05-05T03:45:26.659Z,75.2788
2023-05-05T03:46:27.674Z,74.9161
2023-05-05T03:47:29.623Z,75.0788
2023-05-05T03:49:30.320Z,75.1184
2023-05-05T03:50:30.466Z,75.1448
2023-05-05T03:51:31.023Z,74.8732
2023-05-05T03:52:31.553Z,74.7554
2023-05-05T03:53:32.377Z,74.3370
2023-05-05T03:54:33.671Z,74.4916
2023-05-05T03:55:34.699Z,74.6353
2023-05-05T03:56:35.978Z,75.2854
2023-05-05T03:57:36.757Z,74.4666
2023-05-05T03:58:37.256Z,74.7928
2023-05-05T03:59:38.267Z,74.5326
2023-05-05T04:00:39.603Z,74.3772
2023-05-05T04:01:40.527Z,74.7177
2023-05-05T04:02:41.346Z,74.9728
2023-05-05T04:03:43.329Z,75.1406
2023-05-05T04:04:44.702Z,74.8420
2023-05-05T04:05:44.846Z,75.2247
2023-05-05T04:06:46.813Z,74.9991
2023-05-05T04:07:47.890Z,74.9595
2023-05-05T04:08:48.718Z,75.2169
2023-05-05T04:09:49.600Z,75.2783
2023-05-05T04:10:49.645Z,75.4801
2023-05-05T04:11:49.859Z,75.2368
2023-05-05T04:12:51.031Z,74.9620
2023-05-05T04:13:52.053Z,75.1715
2023-05-05T04:14:52.689Z,75.4035
2023-05-05T04:16:53.321Z,75.6862
2023-05-05T04:17:53.565Z,75.7609
2023-05-05T04:18:54.538Z,75.9701
2023-05-05T04:19:55.374Z,76.6354
2023-05-05T04:20:55.408Z,77.2568
2023-05-05T04:21:55.901Z,77.3634
2023-05-05T04:22:58.248Z,77.7630
2023-05-05T04:23:59.144Z,78.0926
2023-05-05T04:25:00.301Z,78.4756
2023-05-05T04:26:01.135Z,78.6430
2023-05-05T04:27:02.055Z,79.2005
2023-05-05T04:29:02.815Z,79.2766
2023-05-05T04:30:03.854Z,79.0643
2023-05-05T04:32:04.459Z,79.8313
2023-05-05T04:33:04.612Z,80.8073
2023-05-05T04:34:05.408Z,79.9027
2023-05-05T04:35:06.431Z,78.8715
2023-05-05T04:36:07.472Z,78.5351
2023-05-05T04:37:08.304Z,80.5982
2023-05-05T04:38:09.365Z,79.2345
2023-05-05T04:39:10.522Z,79.8641
2023-05-05T04:40:11.352Z,79.0061
2023-05-05T04:41:12.338Z,77.1585
2023-05-05T04:42:12.533Z,77.8903
2023-05-05T04:43:13.500Z,78.0069
2023-05-05T04:44:14.533Z,78.8273
2023-05-05T04:45:15.295Z,77.4912
2023-05-05T04:46:16.326Z,76.3793
2023-05-05T04:47:16.302Z,76.1416
2023-05-05T04:48:16.343Z,76.2868
2023-05-05T04:49:17.514Z,76.0725
2023-05-05T04:50:17.501Z,76.2787
2023-05-05T04:51:18.456Z,76.5555
2023-05-05T04:52:19.329Z,76.6582
2023-05-05T04:53:20.187Z,77.2075
2023-05-05T04:54:21.201Z,77.6168
2023-05-05T04:55:22.003Z,77.4551
2023-05-05T04:56:22.979Z,78.0857
2023-05-05T04:57:24.016Z,77.9313
2023-05-05T04:58:24.893Z,78.2254
2023-05-05T04:59:25.887Z,78.4410
2023-05-05T05:00:26.668Z,79.5470
2023-05-05T05:01:27.860Z,78.9919
2023-05-05T05:02:28.286Z,78.7792
2023-05-05T05:03:28.489Z,79.1868
2023-05-05T05:04:28.811Z,79.1149
2023-05-05T05:05:29.789Z,78.1090
2023-05-05T05:06:30.777Z,78.0310
2023-05-05T05:07:30.818Z,77.7493
2023-05-05T05:08:31.680Z,77.6562
2023-05-05T05:09:32.633Z,77.3457
2023-05-05T05:10:33.600Z,77.9400
2023-05-05T05:11:34.967Z,78.0957
2023-05-05T05:12:35.115Z,78.2782
2023-05-05T05:13:35.407Z,77.3130
2023-05-05T05:14:36.423Z,77.4085
2023-05-05T05:15:36.812Z,77.6879
2023-05-05T05:16:37.094Z,77.7569
2023-05-05T05:17:38.197Z,78.8429
2023-05-05T05:18:39.662Z,79.1484
2023-05-05T05:19:40.079Z,79.2902
2023-05-05T05:20:40.756Z,79.9779
2023-05-05T05:21:40.891Z,80.7534
2023-05-05T05:22:41.519Z,81.1328
2023-05-05T05:23:42.080Z,81.2308
2023-05-05T05:24:43.231Z,81.2180
2023-05-05T05:25:43.315Z,81.6674
2023-05-05T05:26:44.607Z,82.7396
2023-05-05T05:27:50.172Z,83.0353
2023-05-05T05:28:45.870Z,83.3262
2023-05-05T05:29:46.748Z,83.2551
2023-05-05T05:30:47.486Z,82.8950
2023-05-05T05:31:47.478Z,83.0383
2023-05-05T05:32:49.102Z,82.9656
2023-05-05T05:33:49.085Z,82.9705
2023-05-05T05:34:49.925Z,82.9919
2023-05-05T05:35:50.065Z,82.8612
2023-05-05T05:36:51.069Z,82.8256
2023-05-05T05:37:51.107Z,82.8492
2023-05-05T05:38:52.396Z,82.8187
2023-05-05T05:39:53.443Z,83.0237
2023-05-05T05:40:53.976Z,83.1074
2023-05-05T05:41:54.886Z,83.1707
2023-05-05T05:42:56.265Z,83.1230
2023-05-05T05:43:57.318Z,82.9100
2023-05-05T05:44:58.147Z,82.5830
2023-05-05T05:45:58.317Z,82.6262
2023-05-05T05:46:58.909Z,82.5955
2023-05-05T05:48:00.045Z,82.3978
2023-05-05T05:49:00.019Z,82.3164
2023-05-05T05:50:01.229Z,82.0465
2023-05-05T05:51:02.448Z,81.8810
2023-05-05T05:52:02.290Z,82.3427
2023-05-05T05:53:02.952Z,82.7289
2023-05-05T05:54:04.159Z,79.7733
2023-05-05T05:55:05.090Z,78.8371
2023-05-05T05:56:06.301Z,79.0514
2023-05-05T05:57:07.597Z,79.2224
2023-05-05T05:58:08.484Z,78.5759
2023-05-05T05:59:09.537Z,78.9990
2023-05-05T06:00:11.662Z,79.3812
2023-05-05T06:01:12.505Z,77.8029
2023-05-05T06:02:13.885Z,77.0477
2023-05-05T06:03:14.876Z,75.7026
2023-05-05T06:04:15.955Z,74.5449
2023-05-05T06:05:15.887Z,74.8563
2023-05-05T06:06:16.762Z,74.5086
2023-05-05T06:07:17.740Z,75.0629
2023-05-05T06:08:19.070Z,75.5009
2023-05-05T06:09:19.936Z,75.4407
2023-05-05T06:10:28.047Z,76.0783
2023-05-05T06:11:24.873Z,77.1018
2023-05-05T06:12:25.703Z,77.5101
2023-05-05T06:13:25.867Z,77.6787
2023-05-05T06:14:26.516Z,78.0755
2023-05-05T06:15:27.650Z,78.6228
2023-05-05T06:16:29.020Z,77.4120
2023-05-05T06:17:30.046Z,75.7637
2023-05-05T06:18:30.854Z,75.8838
2023-05-05T06:19:31.693Z,73.7701
2023-05-05T06:20:32.681Z,72.0744
2023-05-05T06:21:33.701Z,73.5729
2023-05-05T06:22:34.645Z,73.7664
2023-05-05T06:23:35.629Z,72.9646
2023-05-05T06:24:36.636Z,73.6563
2023-05-05T06:25:37.544Z,72.5323
2023-05-05T06:26:38.547Z,71.1388
2023-05-05T06:27:39.493Z,71.3149
2023-05-05T06:28:40.669Z,71.3328
2023-05-05T06:29:41.798Z,71.1408
2023-05-05T06:30:43.049Z,71.1655
2023-05-05T06:31:44.327Z,71.2343
2023-05-05T06:32:45.480Z,70.1299
2023-05-05T06:33:46.525Z,70.3046
2023-05-05T06:34:46.632Z,70.7119
2023-05-05T06:35:47.824Z,70.9587
2023-05-05T06:36:48.214Z,71.7010
2023-05-05T06:37:50.259Z,70.6742
2023-05-05T06:40:50.534Z,71.1947
2023-05-05T06:41:51.882Z,69.8310
2023-05-05T06:42:53.050Z,67.9993
2023-05-05T06:43:54.549Z,68.8451
2023-05-05T06:44:55.003Z,69.6374
2023-05-05T06:45:56.191Z,70.3921
2023-05-05T06:46:56.219Z,70.1235
2023-05-05T06:47:57.643Z,69.1416
2023-05-05T06:48:57.597Z,68.2568
2023-05-05T06:49:58.717Z,67.9519
2023-05-05T06:50:59.417Z,67.5574
2023-05-05T06:52:00.097Z,66.3200
2023-05-05T06:53:01.109Z,66.1510
2023-05-05T06:54:02.331Z,67.0731
2023-05-05T06:55:02.984Z,67.4988
2023-05-05T06:56:04.124Z,66.7278
2023-05-05T06:57:04.269Z,66.9594
2023-05-05T06:58:05.230Z,66.9425
2023-05-05T06:59:06.426Z,67.3871
2023-05-05T07:00:07.832Z,66.0128
2023-05-05T07:01:08.111Z,64.8069
2023-05-05T07:02:08.184Z,66.3303
2023-05-05T07:03:08.302Z,67.4405
2023-05-05T07:04:08.549Z,66.6399
2023-05-05T07:05:09.648Z,66.0798
2023-05-05T07:06:10.747Z,66.8928
2023-05-05T07:07:12.012Z,66.2238
2023-05-05T07:08:13.085Z,65.7693
2023-05-05T07:09:15.755Z,67.9876
2023-05-05T07:10:15.653Z,67.6727
2023-05-05T07:11:16.422Z,66.6727
2023-05-05T07:12:17.622Z,67.0994
2023-05-05T07:13:19.001Z,66.3926
2023-05-05T07:14:19.041Z,66.2831
2023-05-05T07:15:29.096Z,66.7457
2023-05-05T07:16:24.623Z,65.7065
2023-05-05T07:17:25.864Z,65.6225
2023-05-05T07:18:25.872Z,64.9984
2023-05-05T07:19:26.770Z,64.5570
2023-05-05T07:20:27.922Z,64.4269
2023-05-05T07:21:28.928Z,64.3990
2023-05-05T07:22:30.116Z,64.5967
2023-05-05T07:23:31.265Z,64.2394
2023-05-05T07:24:32.261Z,64.4549
2023-05-05T07:25:33.399Z,64.6417
2023-05-05T07:26:34.711Z,63.4219
2023-05-05T07:27:35.811Z,63.8145
2023-05-05T07:28:36.930Z,64.3984
2023-05-05T07:29:37.833Z,64.9416
2023-05-05T07:30:38.260Z,64.2144
2023-05-05T07:31:39.547Z,64.4191
2023-05-05T07:32:39.614Z,63.9841
2023-05-05T07:33:40.761Z,64.1053
2023-05-05T07:34:41.626Z,64.5132
2023-05-05T07:35:42.597Z,64.0724
2023-05-05T07:36:43.756Z,64.1985
2023-05-05T07:37:44.718Z,63.8786
2023-05-05T07:38:44.965Z,63.6041
2023-05-05T07:39:45.939Z,64.2686
2023-05-05T07:40:46.649Z,64.4983
2023-05-05T07:41:47.811Z,64.1022
2023-05-05T07:42:48.826Z,64.1643
2023-05-05T07:43:49.951Z,63.6755
2023-05-05T07:44:50.957Z,63.5109
2023-05-05T07:45:52.133Z,63.8019
2023-05-05T07:46:52.137Z,64.0716
2023-05-05T07:47:53.249Z,63.4104
2023-05-05T07:49:54.211Z,64.2094
2023-05-05T07:50:54.619Z,64.6851
2023-05-05T07:51:55.873Z,63.6970
2023-05-05T07:53:02.525Z,62.9034
2023-05-05T07:53:56.873Z,63.9047
2023-05-05T07:54:57.074Z,63.4479
2023-05-05T07:55:58.079Z,64.1986
2023-05-05T07:56:59.023Z,63.5728
2023-05-05T07:58:00.200Z,63.6539
2023-05-05T07:59:01.299Z,63.3533
2023-05-05T08:00:02.151Z,63.4489
2023-05-05T08:01:02.226Z,63.6277
2023-05-05T08:02:03.138Z,63.3974
2023-05-05T08:03:03.878Z,63.3409
2023-05-05T08:04:04.938Z,63.9193
2023-05-05T08:05:05.060Z,63.6535
2023-05-05T08:06:04.990Z,63.1005
2023-05-05T08:07:06.102Z,63.0163
2023-05-05T08:08:06.706Z,63.3218
2023-05-05T08:09:07.624Z,64.0567
2023-05-05T08:10:08.916Z,64.5642
2023-05-05T08:11:10.037Z,63.7445
2023-05-05T08:12:10.763Z,63.3575
2023-05-05T08:13:11.071Z,63.4990
2023-05-05T08:14:12.289Z,63.1882
2023-05-05T08:15:12.588Z,63.8116
2023-05-05T08:16:12.708Z,63.8366
2023-05-05T08:17:13.845Z,63.3043
2023-05-05T08:18:14.017Z,63.7950
2023-05-05T08:19:27.566Z,63.9417
2023-05-05T08:20:14.638Z,63.8683
2023-05-05T08:21:14.744Z,64.1060
2023-05-05T08:22:15.881Z,64.6635
2023-05-05T08:23:16.010Z,64.9134
2023-05-05T08:24:17.403Z,64.0302
2023-05-05T08:25:18.667Z,63.2166
2023-05-05T08:26:18.845Z,63.4302
2023-05-05T08:27:19.812Z,64.1671
2023-05-05T08:28:19.895Z,62.9309
2023-05-05T08:29:20.913Z,62.8084
2023-05-05T08:30:20.963Z,61.4427
2023-05-05T08:31:22.211Z,60.7943
2023-05-05T08:34:23.877Z,61.6600
2023-05-05T08:35:24.301Z,61.6424
2023-05-05T08:36:25.543Z,61.0409
2023-05-05T08:37:26.558Z,60.9809
2023-05-05T08:38:27.720Z,61.3433
2023-05-05T08:39:27.998Z,60.8183
2023-05-05T08:40:28.584Z,60.5931
2023-05-05T08:41:29.640Z,60.7799
2023-05-05T08:42:36.937Z,60.5351
2023-05-05T08:43:31.931Z,60.8188
2023-05-05T08:44:33.150Z,62.3228
2023-05-05T08:45:34.059Z,62.3259
2023-05-05T08:46:35.265Z,62.0594
2023-05-05T08:47:35.496Z,60.7823
2023-05-05T08:48:35.734Z,61.0742
2023-05-05T08:50:36.732Z,61.5580
2023-05-05T08:51:37.503Z,61.2727
2023-05-05T08:52:39.080Z,60.5990
2023-05-05T08:53:40.164Z,61.3843
2023-05-05T08:54:40.221Z,61.0728
2023-05-05T08:55:40.695Z,61.3967
2023-05-05T08:56:41.984Z,60.6903
2023-05-05T08:57:43.406Z,60.5498
2023-05-05T08:58:44.386Z,59.8840
2023-05-05T08:59:44.453Z,59.2398
2023-05-05T09:00:45.735Z,59.4750
2023-05-05T09:01:45.990Z,59.4302
2023-05-05T09:02:46.242Z,59.6511
2023-05-05T09:03:47.266Z,59.7506
2023-05-05T09:04:48.556Z,60.9473
2023-05-05T09:05:49.049Z,60.5820
2023-05-05T09:06:49.131Z,60.4195
2023-05-05T09:07:50.384Z,60.7227
2023-05-05T09:08:51.676Z,60.8606
2023-05-05T09:09:51.693Z,60.0263
2023-05-05T09:10:51.997Z,60.7370
2023-05-05T09:11:53.162Z,61.2574
2023-05-05T09:12:53.251Z,61.6468
2023-05-05T09:13:53.462Z,61.2212
2023-05-05T09:14:53.402Z,60.6737
2023-05-05T09:15:53.538Z,61.7541
2023-05-05T09:16:53.547Z,61.6852
2023-05-05T09:17:53.767Z,59.7106
2023-05-05T09:18:54.982Z,59.4993
2023-05-05T09:19:55.046Z,59.2346
2023-05-05T09:20:58.143Z,59.7322
2023-05-05T09:21:56.743Z,60.5746
2023-05-05T09:22:57.976Z,60.4149
2023-05-05T09:24:04.897Z,61.3245
2023-05-05T09:24:59.700Z,60.5140
2023-05-05T09:25:59.917Z,60.5640
2023-05-05T09:27:01.356Z,61.0180
2023-05-05T09:28:01.327Z,61.4552
2023-05-05T09:29:01.418Z,59.4230
2023-05-05T09:30:02.653Z,58.3453
2023-05-05T09:31:02.736Z,58.7547
2023-05-05T09:32:02.828Z,58.5400
2023-05-05T09:33:03.559Z,58.4704
2023-05-05T09:34:04.720Z,58.4137
2023-05-05T09:35:04.730Z,58.1053
2023-05-05T09:36:04.877Z,58.3775
2023-05-05T09:37:06.370Z,58.9185
2023-05-05T09:38:07.017Z,58.0535
2023-05-05T09:39:07.280Z,58.5891
2023-05-05T09:40:07.389Z,59.3728
2023-05-05T09:41:08.637Z,59.8324
2023-05-05T09:42:09.910Z,59.5237
2023-05-05T09:43:10.073Z,59.3089
2023-05-05T09:44:10.164Z,59.1681
2023-05-05T09:45:11.342Z,58.5657
2023-05-05T09:46:11.545Z,58.1443
2023-05-05T09:47:28.989Z,58.3765
2023-05-05T09:48:17.325Z,58.6579
2023-05-05T09:49:17.453Z,58.7181
2023-05-05T09:50:17.757Z,59.7346
2023-05-05T09:51:17.843Z,60.2774
2023-05-05T09:52:17.863Z,60.3858
2023-05-05T09:53:18.177Z,60.9048
2023-05-05T09:54:18.278Z,60.5256
2023-05-05T09:55:18.650Z,59.0567
2023-05-05T09:56:19.119Z,58.9101
2023-05-05T09:57:20.404Z,57.9438
2023-05-05T09:58:20.703Z,57.0578
2023-05-05T09:59:20.629Z,56.9906
2023-05-05T10:00:21.293Z,56.7811
2023-05-05T10:01:21.266Z,57.1908
2023-05-05T10:02:21.598Z,57.3340
2023-05-05T10:03:21.722Z,56.9521
2023-05-05T10:04:21.879Z,57.2695
2023-05-05T10:05:22.110Z,59.5188
2023-05-05T10:06:22.396Z,58.2537
2023-05-05T10:07:23.685Z,58.5247
2023-05-05T10:08:23.712Z,57.7833
2023-05-05T10:09:25.323Z,56.5922
2023-05-05T10:10:26.920Z,56.3912
2023-05-05T10:11:25.865Z,57.4136
2023-05-05T10:12:27.021Z,58.3107
2023-05-05T10:13:27.361Z,59.1872
2023-05-05T10:14:28.612Z,58.1441
2023-05-05T10:15:28.899Z,56.6703
2023-05-05T10:16:29.712Z,56.7346
2023-05-05T10:17:30.282Z,56.2735
2023-05-05T10:18:30.947Z,55.5740
2023-05-05T10:19:30.873Z,55.5113
2023-05-05T10:20:31.087Z,55.3797
2023-05-05T10:21:31.140Z,55.6546
2023-05-05T10:22:31.325Z,55.9224
2023-05-05T10:23:31.464Z,56.6244
2023-05-05T10:24:31.746Z,58.5594
2023-05-05T10:27:33.220Z,55.8774
2023-05-05T10:28:33.347Z,56.4631
2023-05-05T10:29:34.827Z,54.9263
2023-05-05T10:30:35.417Z,56.3847
2023-05-05T10:31:35.551Z,56.3754
2023-05-05T10:33:42.679Z,54.5030
2023-05-05T10:34:43.809Z,54.2977
2023-05-05T10:35:45.028Z,54.6793
2023-05-05T10:36:45.333Z,54.4334
2023-05-05T10:37:45.242Z,54.3359
2023-05-05T10:38:45.304Z,54.6113
2023-05-05T10:39:46.760Z,54.8695
2023-05-05T10:40:47.625Z,54.4078
2023-05-05T10:41:48.004Z,54.7567
2023-05-05T10:42:48.004Z,54.2238
2023-05-05T10:43:48.171Z,54.1808
2023-05-05T10:44:48.286Z,54.2966
2023-05-05T10:45:49.115Z,54.2579
2023-05-05T10:46:49.663Z,54.7296
2023-05-05T10:47:50.118Z,55.3063
2023-05-05T10:48:50.744Z,54.9383
2023-05-05T10:49:50.689Z,55.3176
2023-05-05T10:50:50.823Z,54.9426
2023-05-05T10:51:51.407Z,54.2834
2023-05-05T10:52:51.683Z,54.1073
2023-05-05T10:53:52.978Z,53.8655
2023-05-05T10:54:53.418Z,53.7632
2023-05-05T10:55:53.386Z,53.1745
2023-05-05T10:56:53.820Z,53.3180
2023-05-05T10:57:53.831Z,53.2515
2023-05-05T10:59:00.141Z,53.7326
2023-05-05T10:59:55.230Z,53.8683
2023-05-05T11:00:55.503Z,53.9689
2023-05-05T11:01:56.291Z,53.5703
2023-05-05T11:02:57.236Z,53.8032
2023-05-05T11:03:57.949Z,54.3467
2023-05-05T11:04:58.233Z,54.5625
2023-05-05T11:05:58.380Z,52.9319
2023-05-05T11:06:59.649Z,52.9483
2023-05-05T11:08:00.709Z,52.9945
2023-05-05T11:09:00.821Z,53.1454
2023-05-05T11:10:01.002Z,53.4288
2023-05-05T11:11:01.860Z,52.3361
2023-05-05T11:12:02.315Z,51.3025
2023-05-05T11:13:02.750Z,51.3492
2023-05-05T11:14:03.757Z,50.8325
2023-05-05T11:15:03.919Z,51.7571
2023-05-05T11:16:04.097Z,52.4848
2023-05-05T11:17:04.681Z,51.2862
2023-05-05T11:18:07.376Z,50.2533
2023-05-05T11:19:05.063Z,50.8111
2023-05-05T11:20:05.121Z,50.9206
2023-05-05T11:21:05.481Z,51.5325
2023-05-05T11:22:05.689Z,50.8906
2023-05-05T11:23:05.886Z,51.1241
2023-05-05T11:24:06.056Z,51.6381
2023-05-05T11:25:07.249Z,51.0296
2023-05-05T11:26:07.502Z,50.0696
2023-05-05T11:27:08.921Z,50.2271
2023-05-05T11:28:09.107Z,50.0711
2023-05-05T11:29:09.272Z,50.7888
2023-05-05T11:30:10.520Z,49.9155
2023-05-05T11:31:10.709Z,50.3127
2023-05-05T11:32:11.010Z,49.1733
2023-05-05T11:33:11.141Z,49.6792
2023-05-05T11:34:12.378Z,49.7903
2023-05-05T11:35:12.497Z,50.4858
2023-05-05T11:36:13.950Z,50.7476
2023-05-05T11:37:15.285Z,51.4820
2023-05-05T11:38:15.478Z,49.3917
2023-05-05T11:39:16.763Z,48.6403
2023-05-05T11:40:17.019Z,48.3494
2023-05-05T11:41:17.071Z,48.5935
2023-05-05T11:42:18.305Z,48.9177
2023-05-05T11:43:18.530Z,48.4831
2023-05-05T11:44:18.570Z,48.4266
2023-05-05T11:45:18.693Z,48.9029
2023-05-05T11:46:19.104Z,48.5597
2023-05-05T11:47:19.596Z,49.1331
2023-05-05T11:48:20.080Z,48.1035
2023-05-05T11:49:20.637Z,47.3750
2023-05-05T11:50:20.590Z,47.6918
2023-05-05T11:51:20.714Z,47.3873
2023-05-05T11:52:20.765Z,47.5847
2023-05-05T11:53:21.050Z,47.9735
2023-05-05T11:54:21.285Z,48.5967
2023-05-05T11:55:21.369Z,49.5777
2023-05-05T11:56:22.810Z,48.0071
2023-05-05T11:57:22.895Z,47.1694
2023-05-05T11:58:23.136Z,47.6099
2023-05-05T11:59:24.423Z,48.2387
2023-05-05T12:00:24.621Z,48.7282
2023-05-05T12:01:25.915Z,48.7183
2023-05-05T12:02:26.332Z,47.5491
2023-05-05T12:03:28.138Z,49.8943
2023-05-05T12:04:28.533Z,50.3585
2023-05-05T12:05:28.916Z,48.3914
2023-05-05T12:06:29.233Z,48.1677
2023-05-05T12:07:29.370Z,48.7487
2023-05-05T12:08:29.402Z,48.7000
2023-05-05T12:09:29.503Z,49.5974
2023-05-05T12:10:30.642Z,49.1757
2023-05-05T12:11:31.966Z,49.8045
2023-05-05T12:12:32.337Z,48.6411
2023-05-05T12:13:33.246Z,48.3142
2023-05-05T12:14:34.464Z,46.8866
2023-05-05T12:15:34.676Z,45.9443
2023-05-05T12:16:34.882Z,45.8262
2023-05-05T12:17:35.533Z,46.2099
2023-05-05T12:18:36.222Z,46.3281
2023-05-05T12:19:36.337Z,46.5781
2023-05-05T12:20:37.680Z,47.1972
2023-05-05T12:21:37.860Z,48.2392
2023-05-05T12:22:38.058Z,47.0737
2023-05-05T12:23:38.616Z,46.7156
2023-05-05T12:24:38.630Z,46.0640
2023-05-05T12:25:38.864Z,45.8409
2023-05-05T12:26:38.876Z,45.4086
2023-05-05T12:27:39.285Z,44.9834
2023-05-05T12:28:39.356Z,44.8424
2023-05-05T12:29:39.623Z,45.0380
2023-05-05T12:30:40.655Z,45.1067
2023-05-05T12:31:41.095Z,45.2851
2023-05-05T12:32:41.716Z,45.0168
2023-05-05T12:33:41.942Z,44.0679
2023-05-05T12:34:42.107Z,44.1511
2023-05-05T12:35:42.100Z,43.2405
2023-05-05T12:36:42.685Z,43.9163
2023-05-05T12:37:43.914Z,43.6323
2023-05-05T12:38:44.154Z,42.6943
2023-05-05T12:39:45.634Z,41.6889
2023-05-05T12:40:46.407Z,42.2552
2023-05-05T12:41:46.537Z,43.4987
2023-05-05T12:42:46.627Z,43.8209
2023-05-05T12:43:46.822Z,44.4957
2023-05-05T12:44:46.800Z,43.3201
2023-05-05T12:45:47.135Z,42.5319
2023-05-05T12:46:47.617Z,42.8609
2023-05-05T12:47:48.059Z,42.3446
2023-05-05T12:48:48.601Z,41.3950
2023-05-05T12:49:48.941Z,40.7536
2023-05-05T12:50:50.450Z,41.3165
2023-05-05T12:51:50.516Z,42.2348
2023-05-05T12:52:50.724Z,42.0802
2023-05-05T12:53:51.753Z,42.8403
2023-05-05T12:54:52.953Z,42.4220
2023-05-05T12:55:53.277Z,41.6913
2023-05-05T12:56:53.482Z,41.2046
2023-05-05T12:57:53.666Z,42.5285
2023-05-05T12:58:53.864Z,43.4121
2023-05-05T12:59:55.174Z,43.3418
2023-05-05T13:00:55.739Z,41.5538
2023-05-05T13:01:56.202Z,42.5548